sensor_id;sensor_type;location;lat;lon;timestamp;P1;durP1;ratioP1;P2;durP2;ratioP2
35128;SDS011;21301;43.626;10.580;2022-12-24T00:00:25;42.28;;;27.30;;
35128;SDS011;21301;43.626;10.580;2022-12-24T00:02:52;39.45;;;27.00;;
35128;SDS011;21301;43.626;10.580;2022-12-24T00:05:17;44.38;;;26.67;;
35128;SDS011;21301;43.626;10.580;2022-12-24T00:07:43;40.25;;;25.75;;
35128;SDS011;21301;43.626;10.580;2022-12-24T00:10:09;38.08;;;26.80;;
35128;SDS011;21301;43.626;10.580;2022-12-24T00:12:35;40.55;;;27.15;;
35128;SDS011;21301;43.626;10.580;2022-12-24T00:15:02;39.00;;;26.92;;
35128;SDS011;21301;43.626;10.580;2022-12-24T00:17:29;34.75;;;22.05;;
35128;SDS011;21301;43.626;10.580;2022-12-24T00:19:55;33.90;;;24.35;;
35128;SDS011;21301;43.626;10.580;2022-12-24T00:22:21;38.30;;;24.90;;
35128;SDS011;21301;43.626;10.580;2022-12-24T00:24:47;35.25;;;22.88;;
35128;SDS011;21301;43.626;10.580;2022-12-24T00:27:12;36.90;;;24.05;;
35128;SDS011;21301;43.626;10.580;2022-12-24T00:29:38;38.78;;;26.55;;
35128;SDS011;21301;43.626;10.580;2022-12-24T00:32:04;34.63;;;25.80;;
35128;SDS011;21301;43.626;10.580;2022-12-24T00:34:34;37.38;;;27.10;;
35128;SDS011;21301;43.626;10.580;2022-12-24T00:37:01;40.65;;;26.75;;
35128;SDS011;21301;43.626;10.580;2022-12-24T00:39:27;41.83;;;27.85;;
35128;SDS011;21301;43.626;10.580;2022-12-24T00:41:53;41.65;;;27.60;;
35128;SDS011;21301;43.626;10.580;2022-12-24T00:44:19;44.03;;;29.92;;
35128;SDS011;21301;43.626;10.580;2022-12-24T00:46:44;37.47;;;25.65;;
35128;SDS011;21301;43.626;10.580;2022-12-24T00:49:11;36.00;;;24.63;;
35128;SDS011;21301;43.626;10.580;2022-12-24T00:51:37;45.10;;;28.15;;
35128;SDS011;21301;43.626;10.580;2022-12-24T00:54:03;37.33;;;25.90;;
35128;SDS011;21301;43.626;10.580;2022-12-24T00:56:29;48.30;;;28.75;;
35128;SDS011;21301;43.626;10.580;2022-12-24T00:58:55;42.92;;;29.88;;
35128;SDS011;21301;43.626;10.580;2022-12-24T01:01:21;38.75;;;28.40;;
35128;SDS011;21301;43.626;10.580;2022-12-24T01:03:47;33.28;;;23.95;;
35128;SDS011;21301;43.626;10.580;2022-12-24T01:06:17;40.72;;;27.13;;
35128;SDS011;21301;43.626;10.580;2022-12-24T01:08:45;36.95;;;26.30;;
35128;SDS011;21301;43.626;10.580;2022-12-24T01:11:14;43.45;;;27.25;;
35128;SDS011;21301;43.626;10.580;2022-12-24T01:13:40;43.58;;;27.70;;
35128;SDS011;21301;43.626;10.580;2022-12-24T01:16:13;38.38;;;27.90;;
35128;SDS011;21301;43.626;10.580;2022-12-24T01:18:40;40.95;;;27.58;;
35128;SDS011;21301;43.626;10.580;2022-12-24T01:21:06;36.58;;;25.33;;
35128;SDS011;21301;43.626;10.580;2022-12-24T01:23:32;35.95;;;25.85;;
35128;SDS011;21301;43.626;10.580;2022-12-24T01:26:01;42.30;;;26.55;;
35128;SDS011;21301;43.626;10.580;2022-12-24T01:28:28;38.22;;;25.05;;
35128;SDS011;21301;43.626;10.580;2022-12-24T01:30:54;38.40;;;26.92;;
35128;SDS011;21301;43.626;10.580;2022-12-24T01:33:20;38.72;;;25.67;;
35128;SDS011;21301;43.626;10.580;2022-12-24T01:35:45;39.22;;;26.48;;
35128;SDS011;21301;43.626;10.580;2022-12-24T01:38:12;38.88;;;24.48;;
35128;SDS011;21301;43.626;10.580;2022-12-24T01:40:38;38.92;;;26.02;;
35128;SDS011;21301;43.626;10.580;2022-12-24T01:43:24;37.88;;;25.20;;
35128;SDS011;21301;43.626;10.580;2022-12-24T01:45:53;34.17;;;24.20;;
35128;SDS011;21301;43.626;10.580;2022-12-24T01:48:35;36.20;;;23.70;;
35128;SDS011;21301;43.626;10.580;2022-12-24T01:51:23;41.50;;;24.88;;
35128;SDS011;21301;43.626;10.580;2022-12-24T01:54:18;37.55;;;25.42;;
35128;SDS011;21301;43.626;10.580;2022-12-24T01:57:12;37.20;;;24.27;;
35128;SDS011;21301;43.626;10.580;2022-12-24T01:59:44;37.60;;;24.23;;
35128;SDS011;21301;43.626;10.580;2022-12-24T02:02:13;32.35;;;21.88;;
35128;SDS011;21301;43.626;10.580;2022-12-24T02:04:51;32.60;;;23.80;;
35128;SDS011;21301;43.626;10.580;2022-12-24T02:07:22;40.00;;;24.50;;
35128;SDS011;21301;43.626;10.580;2022-12-24T02:09:48;35.08;;;23.42;;
35128;SDS011;21301;43.626;10.580;2022-12-24T02:12:17;35.83;;;24.20;;
35128;SDS011;21301;43.626;10.580;2022-12-24T02:14:43;35.67;;;23.70;;
35128;SDS011;21301;43.626;10.580;2022-12-24T02:25:10;35.25;;;22.92;;
35128;SDS011;21301;43.626;10.580;2022-12-24T02:30:14;36.10;;;23.50;;
35128;SDS011;21301;43.626;10.580;2022-12-24T02:38:13;35.45;;;22.73;;
35128;SDS011;21301;43.626;10.580;2022-12-24T02:40:49;32.45;;;21.95;;
35128;SDS011;21301;43.626;10.580;2022-12-24T02:43:20;38.45;;;23.50;;
35128;SDS011;21301;43.626;10.580;2022-12-24T02:45:53;33.60;;;23.10;;
35128;SDS011;21301;43.626;10.580;2022-12-24T02:48:25;35.63;;;23.73;;
35128;SDS011;21301;43.626;10.580;2022-12-24T02:50:57;33.72;;;21.50;;
35128;SDS011;21301;43.626;10.580;2022-12-24T02:53:29;36.53;;;23.08;;
35128;SDS011;21301;43.626;10.580;2022-12-24T02:56:01;34.92;;;22.48;;
35128;SDS011;21301;43.626;10.580;2022-12-24T03:11:44;34.53;;;21.70;;
35128;SDS011;21301;43.626;10.580;2022-12-24T03:14:18;34.05;;;21.40;;
35128;SDS011;21301;43.626;10.580;2022-12-24T03:16:45;33.80;;;23.90;;
35128;SDS011;21301;43.626;10.580;2022-12-24T03:19:11;34.10;;;22.70;;
35128;SDS011;21301;43.626;10.580;2022-12-24T03:21:37;36.42;;;22.65;;
35128;SDS011;21301;43.626;10.580;2022-12-24T03:24:07;35.10;;;22.55;;
35128;SDS011;21301;43.626;10.580;2022-12-24T03:26:34;35.30;;;22.05;;
35128;SDS011;21301;43.626;10.580;2022-12-24T03:29:03;34.88;;;22.08;;
35128;SDS011;21301;43.626;10.580;2022-12-24T03:34:28;35.03;;;22.65;;
35128;SDS011;21301;43.626;10.580;2022-12-24T03:36:54;35.50;;;23.85;;
35128;SDS011;21301;43.626;10.580;2022-12-24T03:39:20;36.85;;;23.60;;
35128;SDS011;21301;43.626;10.580;2022-12-24T03:41:46;42.15;;;25.85;;
35128;SDS011;21301;43.626;10.580;2022-12-24T03:44:11;45.17;;;24.08;;
35128;SDS011;21301;43.626;10.580;2022-12-24T03:46:37;36.88;;;23.92;;
35128;SDS011;21301;43.626;10.580;2022-12-24T03:49:03;39.63;;;24.38;;
35128;SDS011;21301;43.626;10.580;2022-12-24T03:51:29;43.40;;;24.70;;
35128;SDS011;21301;43.626;10.580;2022-12-24T03:53:57;43.72;;;26.25;;
35128;SDS011;21301;43.626;10.580;2022-12-24T03:56:23;41.47;;;26.70;;
35128;SDS011;21301;43.626;10.580;2022-12-24T03:58:50;43.58;;;26.08;;
35128;SDS011;21301;43.626;10.580;2022-12-24T04:01:16;40.10;;;22.85;;
35128;SDS011;21301;43.626;10.580;2022-12-24T04:03:42;37.67;;;24.83;;
35128;SDS011;21301;43.626;10.580;2022-12-24T04:06:12;37.70;;;22.48;;
35128;SDS011;21301;43.626;10.580;2022-12-24T04:08:42;39.47;;;25.42;;
35128;SDS011;21301;43.626;10.580;2022-12-24T04:11:09;43.20;;;25.63;;
35128;SDS011;21301;43.626;10.580;2022-12-24T04:13:36;36.42;;;21.73;;
35128;SDS011;21301;43.626;10.580;2022-12-24T04:16:03;42.55;;;26.15;;
35128;SDS011;21301;43.626;10.580;2022-12-24T04:18:31;39.75;;;24.63;;
35128;SDS011;21301;43.626;10.580;2022-12-24T04:20:57;35.08;;;23.70;;
35128;SDS011;21301;43.626;10.580;2022-12-24T04:23:23;39.30;;;25.85;;
35128;SDS011;21301;43.626;10.580;2022-12-24T04:25:49;38.92;;;24.95;;
35128;SDS011;21301;43.626;10.580;2022-12-24T04:28:14;41.80;;;24.98;;
35128;SDS011;21301;43.626;10.580;2022-12-24T04:30:41;41.53;;;25.83;;
35128;SDS011;21301;43.626;10.580;2022-12-24T04:33:07;37.53;;;25.90;;
35128;SDS011;21301;43.626;10.580;2022-12-24T04:35:37;34.88;;;22.80;;
35128;SDS011;21301;43.626;10.580;2022-12-24T04:38:07;29.45;;;22.58;;
35128;SDS011;21301;43.626;10.580;2022-12-24T04:40:33;35.28;;;21.52;;
35128;SDS011;21301;43.626;10.580;2022-12-24T04:42:59;33.05;;;23.27;;
35128;SDS011;21301;43.626;10.580;2022-12-24T04:45:25;38.83;;;24.35;;
35128;SDS011;21301;43.626;10.580;2022-12-24T04:47:51;38.58;;;25.88;;
35128;SDS011;21301;43.626;10.580;2022-12-24T04:50:17;37.95;;;23.15;;
35128;SDS011;21301;43.626;10.580;2022-12-24T04:52:42;32.60;;;22.42;;
35128;SDS011;21301;43.626;10.580;2022-12-24T04:55:08;31.30;;;21.27;;
35128;SDS011;21301;43.626;10.580;2022-12-24T04:57:34;32.63;;;21.10;;
35128;SDS011;21301;43.626;10.580;2022-12-24T05:00:03;31.35;;;21.58;;
35128;SDS011;21301;43.626;10.580;2022-12-24T05:02:29;32.03;;;20.95;;
35128;SDS011;21301;43.626;10.580;2022-12-24T05:04:55;32.70;;;20.77;;
35128;SDS011;21301;43.626;10.580;2022-12-24T05:07:21;30.70;;;20.40;;
35128;SDS011;21301;43.626;10.580;2022-12-24T05:09:47;33.40;;;21.75;;
35128;SDS011;21301;43.626;10.580;2022-12-24T05:12:13;31.98;;;21.90;;
35128;SDS011;21301;43.626;10.580;2022-12-24T05:14:39;32.22;;;20.70;;
35128;SDS011;21301;43.626;10.580;2022-12-24T05:17:06;29.17;;;21.42;;
35128;SDS011;21301;43.626;10.580;2022-12-24T05:19:31;31.10;;;21.70;;
35128;SDS011;21301;43.626;10.580;2022-12-24T05:21:57;35.22;;;21.75;;
35128;SDS011;21301;43.626;10.580;2022-12-24T05:24:41;38.08;;;22.30;;
35128;SDS011;21301;43.626;10.580;2022-12-24T05:27:26;33.35;;;23.13;;
35128;SDS011;21301;43.626;10.580;2022-12-24T05:29:52;29.33;;;20.27;;
35128;SDS011;21301;43.626;10.580;2022-12-24T05:32:17;35.95;;;22.30;;
35128;SDS011;21301;43.626;10.580;2022-12-24T05:34:43;37.75;;;22.58;;
35128;SDS011;21301;43.626;10.580;2022-12-24T05:37:09;32.45;;;22.13;;
35128;SDS011;21301;43.626;10.580;2022-12-24T05:39:35;31.98;;;21.88;;
35128;SDS011;21301;43.626;10.580;2022-12-24T05:42:00;37.10;;;24.30;;
35128;SDS011;21301;43.626;10.580;2022-12-24T05:44:26;32.42;;;22.42;;
35128;SDS011;21301;43.626;10.580;2022-12-24T05:46:52;30.02;;;20.42;;
35128;SDS011;21301;43.626;10.580;2022-12-24T05:49:18;36.80;;;21.88;;
35128;SDS011;21301;43.626;10.580;2022-12-24T05:51:43;29.65;;;19.40;;
35128;SDS011;21301;43.626;10.580;2022-12-24T05:54:09;28.40;;;21.17;;
35128;SDS011;21301;43.626;10.580;2022-12-24T05:56:35;31.10;;;21.20;;
35128;SDS011;21301;43.626;10.580;2022-12-24T05:59:01;28.75;;;19.77;;
35128;SDS011;21301;43.626;10.580;2022-12-24T06:01:26;30.02;;;20.70;;
35128;SDS011;21301;43.626;10.580;2022-12-24T06:03:52;26.10;;;17.77;;
35128;SDS011;21301;43.626;10.580;2022-12-24T06:06:20;28.98;;;19.70;;
35128;SDS011;21301;43.626;10.580;2022-12-24T06:08:48;28.00;;;18.27;;
35128;SDS011;21301;43.626;10.580;2022-12-24T06:11:15;28.88;;;18.48;;
35128;SDS011;21301;43.626;10.580;2022-12-24T06:13:42;22.73;;;15.98;;
35128;SDS011;21301;43.626;10.580;2022-12-24T06:16:13;25.60;;;15.70;;
35128;SDS011;21301;43.626;10.580;2022-12-24T06:18:39;20.88;;;14.50;;
35128;SDS011;21301;43.626;10.580;2022-12-24T06:21:06;25.30;;;15.35;;
35128;SDS011;21301;43.626;10.580;2022-12-24T06:23:34;22.65;;;17.10;;
35128;SDS011;21301;43.626;10.580;2022-12-24T06:26:02;23.75;;;15.82;;
35128;SDS011;21301;43.626;10.580;2022-12-24T06:28:28;25.05;;;16.08;;
35128;SDS011;21301;43.626;10.580;2022-12-24T06:30:56;27.00;;;16.00;;
35128;SDS011;21301;43.626;10.580;2022-12-24T06:33:21;27.02;;;16.85;;
35128;SDS011;21301;43.626;10.580;2022-12-24T06:35:47;25.35;;;16.15;;
35128;SDS011;21301;43.626;10.580;2022-12-24T06:38:13;24.58;;;15.75;;
35128;SDS011;21301;43.626;10.580;2022-12-24T06:40:41;25.65;;;16.85;;
35128;SDS011;21301;43.626;10.580;2022-12-24T06:43:08;23.55;;;13.90;;
35128;SDS011;21301;43.626;10.580;2022-12-24T06:45:34;24.25;;;15.48;;
35128;SDS011;21301;43.626;10.580;2022-12-24T06:48:00;26.02;;;13.95;;
35128;SDS011;21301;43.626;10.580;2022-12-24T06:50:26;23.75;;;14.20;;
35128;SDS011;21301;43.626;10.580;2022-12-24T06:52:52;29.70;;;15.27;;
35128;SDS011;21301;43.626;10.580;2022-12-24T06:55:18;21.45;;;14.68;;
35128;SDS011;21301;43.626;10.580;2022-12-24T06:57:44;24.02;;;15.30;;
35128;SDS011;21301;43.626;10.580;2022-12-24T07:00:10;19.75;;;14.50;;
35128;SDS011;21301;43.626;10.580;2022-12-24T07:02:40;19.80;;;14.27;;
35128;SDS011;21301;43.626;10.580;2022-12-24T07:05:07;19.38;;;13.85;;
35128;SDS011;21301;43.626;10.580;2022-12-24T07:07:36;23.90;;;15.30;;
35128;SDS011;21301;43.626;10.580;2022-12-24T07:10:06;21.27;;;14.68;;
35128;SDS011;21301;43.626;10.580;2022-12-24T07:12:35;21.50;;;15.18;;
35128;SDS011;21301;43.626;10.580;2022-12-24T07:15:01;21.98;;;14.40;;
35128;SDS011;21301;43.626;10.580;2022-12-24T07:17:27;22.90;;;15.48;;
35128;SDS011;21301;43.626;10.580;2022-12-24T07:19:52;26.83;;;14.30;;
35128;SDS011;21301;43.626;10.580;2022-12-24T07:22:18;24.13;;;14.68;;
35128;SDS011;21301;43.626;10.580;2022-12-24T07:24:44;26.15;;;16.42;;
35128;SDS011;21301;43.626;10.580;2022-12-24T07:27:10;22.08;;;14.95;;
35128;SDS011;21301;43.626;10.580;2022-12-24T07:29:36;21.70;;;14.02;;
35128;SDS011;21301;43.626;10.580;2022-12-24T07:32:02;24.92;;;15.35;;
35128;SDS011;21301;43.626;10.580;2022-12-24T07:34:28;21.92;;;15.05;;
35128;SDS011;21301;43.626;10.580;2022-12-24T07:36:53;22.63;;;15.15;;
35128;SDS011;21301;43.626;10.580;2022-12-24T07:39:19;18.70;;;13.63;;
35128;SDS011;21301;43.626;10.580;2022-12-24T07:41:45;23.80;;;15.50;;
35128;SDS011;21301;43.626;10.580;2022-12-24T07:44:12;26.50;;;16.80;;
35128;SDS011;21301;43.626;10.580;2022-12-24T07:46:38;30.95;;;21.38;;
35128;SDS011;21301;43.626;10.580;2022-12-24T07:49:04;30.25;;;20.30;;
35128;SDS011;21301;43.626;10.580;2022-12-24T07:51:30;29.25;;;19.42;;
35128;SDS011;21301;43.626;10.580;2022-12-24T07:53:56;29.40;;;17.38;;
35128;SDS011;21301;43.626;10.580;2022-12-24T07:56:22;22.05;;;15.13;;
35128;SDS011;21301;43.626;10.580;2022-12-24T07:58:49;27.92;;;18.33;;
35128;SDS011;21301;43.626;10.580;2022-12-24T08:01:15;21.83;;;15.55;;
35128;SDS011;21301;43.626;10.580;2022-12-24T08:03:41;25.45;;;15.88;;
35128;SDS011;21301;43.626;10.580;2022-12-24T08:06:07;25.13;;;15.85;;
35128;SDS011;21301;43.626;10.580;2022-12-24T08:08:33;24.00;;;15.45;;
35128;SDS011;21301;43.626;10.580;2022-12-24T08:11:00;24.50;;;16.30;;
35128;SDS011;21301;43.626;10.580;2022-12-24T08:13:28;27.05;;;16.48;;
35128;SDS011;21301;43.626;10.580;2022-12-24T08:15:54;24.95;;;16.98;;
35128;SDS011;21301;43.626;10.580;2022-12-24T08:18:20;23.95;;;16.33;;
35128;SDS011;21301;43.626;10.580;2022-12-24T08:20:46;24.92;;;15.18;;
35128;SDS011;21301;43.626;10.580;2022-12-24T08:23:12;25.70;;;14.93;;
35128;SDS011;21301;43.626;10.580;2022-12-24T08:25:41;20.90;;;14.02;;
35128;SDS011;21301;43.626;10.580;2022-12-24T08:28:07;22.20;;;13.95;;
35128;SDS011;21301;43.626;10.580;2022-12-24T08:30:33;19.20;;;13.15;;
35128;SDS011;21301;43.626;10.580;2022-12-24T08:32:59;24.27;;;15.30;;
35128;SDS011;21301;43.626;10.580;2022-12-24T08:35:26;18.80;;;13.98;;
35128;SDS011;21301;43.626;10.580;2022-12-24T08:37:52;23.65;;;15.20;;
35128;SDS011;21301;43.626;10.580;2022-12-24T08:40:18;21.88;;;14.35;;
35128;SDS011;21301;43.626;10.580;2022-12-24T08:42:44;25.58;;;14.52;;
35128;SDS011;21301;43.626;10.580;2022-12-24T08:45:10;25.75;;;13.48;;
35128;SDS011;21301;43.626;10.580;2022-12-24T08:47:36;19.92;;;12.52;;
35128;SDS011;21301;43.626;10.580;2022-12-24T08:50:06;20.98;;;14.60;;
35128;SDS011;21301;43.626;10.580;2022-12-24T08:52:32;20.00;;;13.82;;
35128;SDS011;21301;43.626;10.580;2022-12-24T08:54:58;19.35;;;14.32;;
35128;SDS011;21301;43.626;10.580;2022-12-24T08:57:24;20.55;;;13.13;;
35128;SDS011;21301;43.626;10.580;2022-12-24T08:59:49;21.40;;;13.88;;
35128;SDS011;21301;43.626;10.580;2022-12-24T09:02:15;21.13;;;13.10;;
35128;SDS011;21301;43.626;10.580;2022-12-24T09:04:41;24.23;;;14.05;;
35128;SDS011;21301;43.626;10.580;2022-12-24T09:07:07;27.38;;;16.20;;
35128;SDS011;21301;43.626;10.580;2022-12-24T09:09:34;20.65;;;12.85;;
35128;SDS011;21301;43.626;10.580;2022-12-24T09:12:00;20.23;;;13.10;;
35128;SDS011;21301;43.626;10.580;2022-12-24T09:14:26;19.92;;;12.35;;
35128;SDS011;21301;43.626;10.580;2022-12-24T09:16:51;19.45;;;11.13;;
35128;SDS011;21301;43.626;10.580;2022-12-24T09:19:17;19.40;;;11.65;;
35128;SDS011;21301;43.626;10.580;2022-12-24T09:21:43;20.10;;;11.52;;
35128;SDS011;21301;43.626;10.580;2022-12-24T09:24:09;21.63;;;13.98;;
35128;SDS011;21301;43.626;10.580;2022-12-24T09:26:35;18.38;;;12.45;;
35128;SDS011;21301;43.626;10.580;2022-12-24T09:29:00;18.73;;;12.75;;
35128;SDS011;21301;43.626;10.580;2022-12-24T09:31:27;21.90;;;11.55;;
35128;SDS011;21301;43.626;10.580;2022-12-24T09:33:53;20.48;;;12.70;;
35128;SDS011;21301;43.626;10.580;2022-12-24T09:36:20;16.02;;;11.75;;
35128;SDS011;21301;43.626;10.580;2022-12-24T09:38:46;23.58;;;13.10;;
35128;SDS011;21301;43.626;10.580;2022-12-24T09:43:48;18.58;;;12.60;;
35128;SDS011;21301;43.626;10.580;2022-12-24T09:46:26;18.15;;;11.35;;
35128;SDS011;21301;43.626;10.580;2022-12-24T09:48:56;18.15;;;12.15;;
35128;SDS011;21301;43.626;10.580;2022-12-24T09:51:38;20.63;;;12.75;;
35128;SDS011;21301;43.626;10.580;2022-12-24T09:54:12;19.90;;;11.10;;
35128;SDS011;21301;43.626;10.580;2022-12-24T09:56:44;19.65;;;11.70;;
35128;SDS011;21301;43.626;10.580;2022-12-24T09:59:21;17.17;;;10.23;;
35128;SDS011;21301;43.626;10.580;2022-12-24T10:01:50;17.58;;;10.20;;
35128;SDS011;21301;43.626;10.580;2022-12-24T10:04:21;20.73;;;10.68;;
35128;SDS011;21301;43.626;10.580;2022-12-24T10:12:28;23.25;;;12.90;;
35128;SDS011;21301;43.626;10.580;2022-12-24T10:25:21;18.88;;;12.75;;
35128;SDS011;21301;43.626;10.580;2022-12-24T10:27:57;23.05;;;13.32;;
35128;SDS011;21301;43.626;10.580;2022-12-24T10:30:26;18.83;;;10.70;;
35128;SDS011;21301;43.626;10.580;2022-12-24T10:32:53;25.73;;;10.70;;
35128;SDS011;21301;43.626;10.580;2022-12-24T10:35:24;17.52;;;11.25;;
35128;SDS011;21301;43.626;10.580;2022-12-24T10:37:53;19.23;;;11.32;;
35128;SDS011;21301;43.626;10.580;2022-12-24T10:40:24;18.88;;;10.48;;
35128;SDS011;21301;43.626;10.580;2022-12-24T10:42:59;19.15;;;12.70;;
35128;SDS011;21301;43.626;10.580;2022-12-24T10:45:26;17.52;;;10.05;;
35128;SDS011;21301;43.626;10.580;2022-12-24T10:48:02;19.10;;;9.25;;
35128;SDS011;21301;43.626;10.580;2022-12-24T10:50:33;16.38;;;9.18;;
35128;SDS011;21301;43.626;10.580;2022-12-24T10:53:27;15.05;;;9.82;;
35128;SDS011;21301;43.626;10.580;2022-12-24T10:55:49;16.55;;;9.70;;
35128;SDS011;21301;43.626;10.580;2022-12-24T10:58:24;23.10;;;10.63;;
35128;SDS011;21301;43.626;10.580;2022-12-24T11:00:53;20.02;;;11.00;;
35128;SDS011;21301;43.626;10.580;2022-12-24T11:06:14;16.42;;;11.40;;
35128;SDS011;21301;43.626;10.580;2022-12-24T11:08:45;27.75;;;12.40;;
35128;SDS011;21301;43.626;10.580;2022-12-24T11:11:15;21.42;;;13.05;;
35128;SDS011;21301;43.626;10.580;2022-12-24T11:13:51;16.23;;;11.63;;
35128;SDS011;21301;43.626;10.580;2022-12-24T11:16:32;20.33;;;12.52;;
35128;SDS011;21301;43.626;10.580;2022-12-24T11:19:00;20.30;;;13.95;;
35128;SDS011;21301;43.626;10.580;2022-12-24T11:21:29;23.85;;;14.25;;
35128;SDS011;21301;43.626;10.580;2022-12-24T11:26:36;24.40;;;14.85;;
35128;SDS011;21301;43.626;10.580;2022-12-24T11:29:04;22.58;;;14.50;;
35128;SDS011;21301;43.626;10.580;2022-12-24T11:31:39;21.52;;;13.90;;
35128;SDS011;21301;43.626;10.580;2022-12-24T11:37:12;18.10;;;13.38;;
35128;SDS011;21301;43.626;10.580;2022-12-24T11:39:54;19.38;;;13.20;;
35128;SDS011;21301;43.626;10.580;2022-12-24T11:45:04;29.20;;;15.05;;
35128;SDS011;21301;43.626;10.580;2022-12-24T11:47:53;29.48;;;19.85;;
35128;SDS011;21301;43.626;10.580;2022-12-24T11:50:28;33.72;;;21.65;;
35128;SDS011;21301;43.626;10.580;2022-12-24T11:58:24;21.75;;;13.45;;
35128;SDS011;21301;43.626;10.580;2022-12-24T12:00:57;21.55;;;14.00;;
35128;SDS011;21301;43.626;10.580;2022-12-24T12:03:53;21.50;;;13.65;;
35128;SDS011;21301;43.626;10.580;2022-12-24T12:08:55;25.70;;;15.43;;
35128;SDS011;21301;43.626;10.580;2022-12-24T12:11:25;24.20;;;13.43;;
35128;SDS011;21301;43.626;10.580;2022-12-24T12:13:53;19.50;;;12.55;;
35128;SDS011;21301;43.626;10.580;2022-12-24T12:19:16;23.42;;;15.32;;
35128;SDS011;21301;43.626;10.580;2022-12-24T12:21:46;39.05;;;20.05;;
35128;SDS011;21301;43.626;10.580;2022-12-24T12:24:23;29.38;;;14.70;;
35128;SDS011;21301;43.626;10.580;2022-12-24T12:26:59;19.80;;;11.77;;
35128;SDS011;21301;43.626;10.580;2022-12-24T12:29:44;26.90;;;12.85;;
35128;SDS011;21301;43.626;10.580;2022-12-24T12:32:38;17.85;;;12.93;;
35128;SDS011;21301;43.626;10.580;2022-12-24T12:35:13;19.67;;;11.50;;
35128;SDS011;21301;43.626;10.580;2022-12-24T12:37:50;23.02;;;12.75;;
35128;SDS011;21301;43.626;10.580;2022-12-24T12:40:34;28.00;;;12.52;;
35128;SDS011;21301;43.626;10.580;2022-12-24T12:46:05;26.58;;;13.48;;
35128;SDS011;21301;43.626;10.580;2022-12-24T12:51:31;25.42;;;16.23;;
35128;SDS011;21301;43.626;10.580;2022-12-24T12:57:09;26.70;;;15.25;;
35128;SDS011;21301;43.626;10.580;2022-12-24T12:59:39;23.05;;;14.52;;
35128;SDS011;21301;43.626;10.580;2022-12-24T13:21:24;23.85;;;16.23;;
35128;SDS011;21301;43.626;10.580;2022-12-24T13:26:56;25.52;;;18.05;;
35128;SDS011;21301;43.626;10.580;2022-12-24T13:34:50;22.02;;;13.50;;
35128;SDS011;21301;43.626;10.580;2022-12-24T13:37:30;31.45;;;19.13;;
35128;SDS011;21301;43.626;10.580;2022-12-24T13:42:48;28.92;;;17.00;;
35128;SDS011;21301;43.626;10.580;2022-12-24T13:47:55;36.00;;;20.73;;
35128;SDS011;21301;43.626;10.580;2022-12-24T13:50:38;33.75;;;22.70;;
35128;SDS011;21301;43.626;10.580;2022-12-24T13:58:34;28.63;;;19.05;;
35128;SDS011;21301;43.626;10.580;2022-12-24T14:01:07;34.45;;;20.58;;
35128;SDS011;21301;43.626;10.580;2022-12-24T14:06:08;28.20;;;18.67;;
35128;SDS011;21301;43.626;10.580;2022-12-24T14:08:46;27.20;;;17.05;;
35128;SDS011;21301;43.626;10.580;2022-12-24T14:11:23;32.97;;;19.85;;
35128;SDS011;21301;43.626;10.580;2022-12-24T14:13:51;26.95;;;18.10;;
35128;SDS011;21301;43.626;10.580;2022-12-24T14:16:42;40.30;;;22.67;;
35128;SDS011;21301;43.626;10.580;2022-12-24T14:19:17;33.25;;;20.05;;
35128;SDS011;21301;43.626;10.580;2022-12-24T14:22:03;32.03;;;18.42;;
35128;SDS011;21301;43.626;10.580;2022-12-24T14:24:41;40.47;;;23.90;;
35128;SDS011;21301;43.626;10.580;2022-12-24T14:32:34;24.30;;;17.15;;
35128;SDS011;21301;43.626;10.580;2022-12-24T14:37:34;24.90;;;16.65;;
35128;SDS011;21301;43.626;10.580;2022-12-24T14:40:00;22.08;;;14.13;;
35128;SDS011;21301;43.626;10.580;2022-12-24T14:42:36;31.27;;;17.30;;
35128;SDS011;21301;43.626;10.580;2022-12-24T14:45:25;25.55;;;16.10;;
35128;SDS011;21301;43.626;10.580;2022-12-24T14:48:01;26.38;;;15.45;;
35128;SDS011;21301;43.626;10.580;2022-12-24T14:56:20;28.83;;;17.52;;
35128;SDS011;21301;43.626;10.580;2022-12-24T14:58:49;30.77;;;18.08;;
35128;SDS011;21301;43.626;10.580;2022-12-24T15:01:25;32.72;;;20.52;;
35128;SDS011;21301;43.626;10.580;2022-12-24T15:06:37;32.22;;;18.63;;
35128;SDS011;21301;43.626;10.580;2022-12-24T15:09:13;31.87;;;16.87;;
35128;SDS011;21301;43.626;10.580;2022-12-24T15:11:47;30.98;;;17.13;;
35128;SDS011;21301;43.626;10.580;2022-12-24T15:14:16;25.00;;;14.95;;
35128;SDS011;21301;43.626;10.580;2022-12-24T15:16:57;25.92;;;15.65;;
35128;SDS011;21301;43.626;10.580;2022-12-24T15:19:36;21.10;;;15.07;;
35128;SDS011;21301;43.626;10.580;2022-12-24T15:22:09;23.17;;;15.32;;
35128;SDS011;21301;43.626;10.580;2022-12-24T15:24:45;27.30;;;17.35;;
35128;SDS011;21301;43.626;10.580;2022-12-24T15:27:13;27.42;;;17.23;;
35128;SDS011;21301;43.626;10.580;2022-12-24T15:29:48;23.58;;;14.65;;
35128;SDS011;21301;43.626;10.580;2022-12-24T15:32:16;29.73;;;17.65;;
35128;SDS011;21301;43.626;10.580;2022-12-24T15:34:53;29.00;;;18.02;;
35128;SDS011;21301;43.626;10.580;2022-12-24T15:37:20;28.92;;;16.45;;
35128;SDS011;21301;43.626;10.580;2022-12-24T15:39:53;31.45;;;19.48;;
35128;SDS011;21301;43.626;10.580;2022-12-24T15:42:22;36.80;;;21.40;;
35128;SDS011;21301;43.626;10.580;2022-12-24T15:47:22;37.13;;;18.60;;
35128;SDS011;21301;43.626;10.580;2022-12-24T15:52:45;29.98;;;19.65;;
35128;SDS011;21301;43.626;10.580;2022-12-24T15:55:28;29.67;;;18.52;;
35128;SDS011;21301;43.626;10.580;2022-12-24T15:57:57;32.00;;;21.02;;
35128;SDS011;21301;43.626;10.580;2022-12-24T16:00:26;33.28;;;20.52;;
35128;SDS011;21301;43.626;10.580;2022-12-24T16:06:12;28.70;;;19.75;;
35128;SDS011;21301;43.626;10.580;2022-12-24T16:08:38;29.25;;;19.55;;
35128;SDS011;21301;43.626;10.580;2022-12-24T16:11:12;30.90;;;19.45;;
35128;SDS011;21301;43.626;10.580;2022-12-24T16:13:54;32.50;;;19.25;;
35128;SDS011;21301;43.626;10.580;2022-12-24T16:16:35;31.60;;;19.67;;
35128;SDS011;21301;43.626;10.580;2022-12-24T16:19:06;31.52;;;19.92;;
35128;SDS011;21301;43.626;10.580;2022-12-24T16:21:40;32.35;;;17.38;;
35128;SDS011;21301;43.626;10.580;2022-12-24T16:24:12;33.78;;;20.20;;
35128;SDS011;21301;43.626;10.580;2022-12-24T16:26:59;43.42;;;26.40;;
35128;SDS011;21301;43.626;10.580;2022-12-24T16:29:25;48.70;;;29.48;;
35128;SDS011;21301;43.626;10.580;2022-12-24T16:31:55;49.70;;;32.80;;
35128;SDS011;21301;43.626;10.580;2022-12-24T16:34:24;37.75;;;23.42;;
35128;SDS011;21301;43.626;10.580;2022-12-24T16:36:51;34.28;;;21.27;;
35128;SDS011;21301;43.626;10.580;2022-12-24T16:39:19;29.70;;;19.48;;
35128;SDS011;21301;43.626;10.580;2022-12-24T16:41:54;37.60;;;21.92;;
35128;SDS011;21301;43.626;10.580;2022-12-24T16:44:40;29.02;;;18.13;;
35128;SDS011;21301;43.626;10.580;2022-12-24T16:47:10;30.33;;;19.90;;
35128;SDS011;21301;43.626;10.580;2022-12-24T16:49:42;36.35;;;21.52;;